sensor_id;sensor_type;location;lat;lon;timestamp;pressure;altitude;pressure_sealevel;temperature;humidity
13209;BME280;6669;42.678;23.332;2022-08-03T00:01:42;94558.13;;;20.00;100.00
13209;BME280;6669;42.678;23.332;2022-08-03T00:04:10;94558.81;;;19.95;100.00
13209;BME280;6669;42.678;23.332;2022-08-03T00:06:38;94565.09;;;19.94;100.00
13209;BME280;6669;42.678;23.332;2022-08-03T00:09:08;94562.94;;;19.91;100.00
13209;BME280;6669;42.678;23.332;2022-08-03T00:11:37;94550.09;;;19.83;100.00
13209;BME280;6669;42.678;23.332;2022-08-03T00:14:05;94558.34;;;19.86;100.00
13209;BME280;6669;42.678;23.332;2022-08-03T00:16:34;94554.44;;;19.77;100.00
13209;BME280;6669;42.678;23.332;2022-08-03T00:19:02;94553.84;;;19.75;100.00
13209;BME280;6669;42.678;23.332;2022-08-03T00:21:30;94548.81;;;19.73;100.00
13209;BME280;6669;42.678;23.332;2022-08-03T00:23:58;94558.34;;;19.74;100.00
13209;BME280;6669;42.678;23.332;2022-08-03T00:26:28;94556.72;;;19.73;100.00
13209;BME280;6669;42.678;23.332;2022-08-03T00:28:57;94554.09;;;19.73;100.00
13209;BME280;6669;42.678;23.332;2022-08-03T00:31:25;94552.97;;;19.69;100.00
13209;BME280;6669;42.678;23.332;2022-08-03T00:34:13;94553.28;;;19.61;100.00
13209;BME280;6669;42.678;23.332;2022-08-03T00:36:41;94550.88;;;19.59;100.00
13209;BME280;6669;42.678;23.332;2022-08-03T00:39:09;94548.16;;;19.54;100.00
13209;BME280;6669;42.678;23.332;2022-08-03T00:41:38;94547.13;;;19.43;100.00
13209;BME280;6669;42.678;23.332;2022-08-03T00:44:08;94552.41;;;19.43;100.00
13209;BME280;6669;42.678;23.332;2022-08-03T00:46:36;94545.16;;;19.39;100.00
13209;BME280;6669;42.678;23.332;2022-08-03T00:49:04;94548.47;;;19.34;100.00
13209;BME280;6669;42.678;23.332;2022-08-03T00:51:32;94546.66;;;19.35;100.00
13209;BME280;6669;42.678;23.332;2022-08-03T00:54:00;94547.44;;;19.23;100.00
13209;BME280;6669;42.678;23.332;2022-08-03T00:56:28;94548.72;;;19.21;100.00
13209;BME280;6669;42.678;23.332;2022-08-03T00:58:58;94542.25;;;19.17;100.00
13209;BME280;6669;42.678;23.332;2022-08-03T01:01:27;94551.66;;;19.13;100.00
13209;BME280;6669;42.678;23.332;2022-08-03T01:03:58;94545.91;;;19.04;100.00
13209;BME280;6669;42.678;23.332;2022-08-03T01:06:35;94542.00;;;18.94;100.00
13209;BME280;6669;42.678;23.332;2022-08-03T01:09:11;94541.28;;;18.87;100.00
13209;BME280;6669;42.678;23.332;2022-08-03T01:11:48;94528.31;;;18.74;100.00
13209;BME280;6669;42.678;23.332;2022-08-03T01:14:32;94535.28;;;18.68;100.00
13209;BME280;6669;42.678;23.332;2022-08-03T01:17:07;94524.72;;;18.56;100.00
13209;BME280;6669;42.678;23.332;2022-08-03T01:19:45;94526.44;;;18.62;100.00
13209;BME280;6669;42.678;23.332;2022-08-03T01:22:45;94518.84;;;18.54;100.00
13209;BME280;6669;42.678;23.332;2022-08-03T01:25:30;94514.03;;;18.39;100.00
13209;BME280;6669;42.678;23.332;2022-08-03T01:28:21;94511.31;;;18.27;100.00
13209;BME280;6669;42.678;23.332;2022-08-03T01:30:57;94517.63;;;18.26;100.00
13209;BME280;6669;42.678;23.332;2022-08-03T01:33:31;94518.44;;;18.27;100.00
13209;BME280;6669;42.678;23.332;2022-08-03T01:36:04;94515.88;;;18.20;100.00
13209;BME280;6669;42.678;23.332;2022-08-03T01:38:36;94518.25;;;18.10;100.00
13209;BME280;6669;42.678;23.332;2022-08-03T01:41:10;94522.47;;;18.11;100.00
13209;BME280;6669;42.678;23.332;2022-08-03T01:43:40;94522.47;;;18.11;100.00
13209;BME280;6669;42.678;23.332;2022-08-03T01:46:31;94529.28;;;18.00;100.00
13209;BME280;6669;42.678;23.332;2022-08-03T01:49:02;94525.53;;;18.08;100.00
13209;BME280;6669;42.678;23.332;2022-08-03T01:51:36;94527.25;;;18.02;100.00
13209;BME280;6669;42.678;23.332;2022-08-03T01:54:25;94519.00;;;17.99;100.00
13209;BME280;6669;42.678;23.332;2022-08-03T01:56:56;94519.19;;;17.97;100.00
13209;BME280;6669;42.678;23.332;2022-08-03T01:59:25;94520.06;;;17.91;100.00
13209;BME280;6669;42.678;23.332;2022-08-03T02:01:59;94512.81;;;17.86;100.00
13209;BME280;6669;42.678;23.332;2022-08-03T02:04:47;94518.31;;;17.85;100.00
13209;BME280;6669;42.678;23.332;2022-08-03T02:07:18;94521.72;;;17.85;100.00
13209;BME280;6669;42.678;23.332;2022-08-03T02:09:49;94526.56;;;17.88;100.00
13209;BME280;6669;42.678;23.332;2022-08-03T02:12:18;94518.06;;;17.86;100.00
13209;BME280;6669;42.678;23.332;2022-08-03T02:14:48;94516.84;;;17.89;100.00
13209;BME280;6669;42.678;23.332;2022-08-03T02:17:18;94516.59;;;17.90;100.00
13209;BME280;6669;42.678;23.332;2022-08-03T02:20:07;94522.53;;;17.86;100.00
13209;BME280;6669;42.678;23.332;2022-08-03T02:22:38;94512.03;;;17.86;100.00
13209;BME280;6669;42.678;23.332;2022-08-03T02:25:08;94511.56;;;17.89;100.00
13209;BME280;6669;42.678;23.332;2022-08-03T02:27:40;94509.19;;;17.87;100.00
13209;BME280;6669;42.678;23.332;2022-08-03T02:30:11;94501.94;;;17.83;100.00
13209;BME280;6669;42.678;23.332;2022-08-03T02:32:47;94503.53;;;17.84;100.00
13209;BME280;6669;42.678;23.332;2022-08-03T02:35:17;94502.06;;;17.88;100.00
13209;BME280;6669;42.678;23.332;2022-08-03T02:37:51;94507.56;;;17.86;100.00
13209;BME280;6669;42.678;23.332;2022-08-03T02:40:20;94509.41;;;17.86;100.00
13209;BME280;6669;42.678;23.332;2022-08-03T02:42:54;94501.44;;;17.92;100.00
13209;BME280;6669;42.678;23.332;2022-08-03T02:45:25;94504.47;;;17.89;100.00
13209;BME280;6669;42.678;23.332;2022-08-03T02:47:59;94502.06;;;17.88;100.00
13209;BME280;6669;42.678;23.332;2022-08-03T02:50:31;94500.56;;;17.80;100.00
13209;BME280;6669;42.678;23.332;2022-08-03T02:53:01;94503.19;;;17.80;100.00
13209;BME280;6669;42.678;23.332;2022-08-03T02:55:34;94505.22;;;17.78;100.00
13209;BME280;6669;42.678;23.332;2022-08-03T02:58:12;94509.91;;;17.76;100.00
13209;BME280;6669;42.678;23.332;2022-08-03T03:00:43;94510.13;;;17.74;100.00
13209;BME280;6669;42.678;23.332;2022-08-03T03:03:14;94503.19;;;17.61;100.00
13209;BME280;6669;42.678;23.332;2022-08-03T03:05:45;94505.97;;;17.67;100.00
13209;BME280;6669;42.678;23.332;2022-08-03T03:08:24;94512.25;;;17.65;100.00
13209;BME280;6669;42.678;23.332;2022-08-03T03:10:56;94502.31;;;17.49;100.00
13209;BME280;6669;42.678;23.332;2022-08-03T03:13:26;94518.88;;;17.49;100.00
13209;BME280;6669;42.678;23.332;2022-08-03T03:15:56;94519.09;;;17.48;100.00
13209;BME280;6669;42.678;23.332;2022-08-03T03:18:30;94520.16;;;17.40;100.00
13209;BME280;6669;42.678;23.332;2022-08-03T03:21:00;94520.78;;;17.42;100.00
13209;BME280;6669;42.678;23.332;2022-08-03T03:23:30;94529.50;;;17.36;100.00
13209;BME280;6669;42.678;23.332;2022-08-03T03:25:59;94528.47;;;17.37;100.00
13209;BME280;6669;42.678;23.332;2022-08-03T03:28:28;94529.50;;;17.36;100.00
13209;BME280;6669;42.678;23.332;2022-08-03T03:30:57;94529.72;;;17.35;100.00
13209;BME280;6669;42.678;23.332;2022-08-03T03:33:27;94532.78;;;17.31;100.00
13209;BME280;6669;42.678;23.332;2022-08-03T03:35:56;94539.19;;;17.36;100.00
13209;BME280;6669;42.678;23.332;2022-08-03T03:38:26;94530.75;;;17.34;100.00
13209;BME280;6669;42.678;23.332;2022-08-03T03:40:54;94527.91;;;17.35;100.00
13209;BME280;6669;42.678;23.332;2022-08-03T03:43:23;94535.94;;;17.40;100.00
13209;BME280;6669;42.678;23.332;2022-08-03T03:45:51;94538.41;;;17.35;100.00
13209;BME280;6669;42.678;23.332;2022-08-03T03:48:20;94538.56;;;17.40;100.00
13209;BME280;6669;42.678;23.332;2022-08-03T03:50:50;94538.13;;;17.43;100.00
13209;BME280;6669;42.678;23.332;2022-08-03T03:53:18;94541.94;;;17.47;100.00
13209;BME280;6669;42.678;23.332;2022-08-03T03:55:46;94543.91;;;17.52;100.00
13209;BME280;6669;42.678;23.332;2022-08-03T03:58:27;94547.06;;;17.61;100.00
13209;BME280;6669;42.678;23.332;2022-08-03T04:00:55;94543.03;;;17.58;100.00
13209;BME280;6669;42.678;23.332;2022-08-03T04:03:24;94537.03;;;17.51;100.00
13209;BME280;6669;42.678;23.332;2022-08-03T04:05:53;94540.84;;;17.55;100.00
13209;BME280;6669;42.678;23.332;2022-08-03T04:08:39;94541.56;;;17.62;100.00
13209;BME280;6669;42.678;23.332;2022-08-03T04:11:26;94537.78;;;17.58;100.00
13209;BME280;6669;42.678;23.332;2022-08-03T04:14:00;94541.38;;;17.64;100.00
13209;BME280;6669;42.678;23.332;2022-08-03T04:16:31;94530.03;;;17.63;100.00
13209;BME280;6669;42.678;23.332;2022-08-03T04:19:02;94540.44;;;17.77;100.00
13209;BME280;6669;42.678;23.332;2022-08-03T04:21:34;94544.97;;;17.88;100.00
13209;BME280;6669;42.678;23.332;2022-08-03T04:24:05;94546.13;;;17.92;100.00
13209;BME280;6669;42.678;23.332;2022-08-03T04:26:37;94542.19;;;18.02;100.00
13209;BME280;6669;42.678;23.332;2022-08-03T04:29:06;94546.00;;;18.06;100.00
13209;BME280;6669;42.678;23.332;2022-08-03T04:31:37;94547.38;;;18.08;100.00
13209;BME280;6669;42.678;23.332;2022-08-03T04:34:06;94552.00;;;18.13;100.00
13209;BME280;6669;42.678;23.332;2022-08-03T04:36:42;94543.22;;;18.19;100.00
13209;BME280;6669;42.678;23.332;2022-08-03T04:39:13;94547.81;;;18.24;100.00
13209;BME280;6669;42.678;23.332;2022-08-03T04:41:44;94548.16;;;18.27;100.00
13209;BME280;6669;42.678;23.332;2022-08-03T04:44:38;94561.44;;;18.33;100.00
13209;BME280;6669;42.678;23.332;2022-08-03T04:47:07;94566.06;;;18.37;100.00
13209;BME280;6669;42.678;23.332;2022-08-03T04:49:36;94568.03;;;18.42;100.00
13209;BME280;6669;42.678;23.332;2022-08-03T04:52:07;94567.94;;;18.49;100.00
13209;BME280;6669;42.678;23.332;2022-08-03T04:54:40;94560.97;;;18.54;100.00
13209;BME280;6669;42.678;23.332;2022-08-03T04:57:15;94562.16;;;18.58;100.00
13209;BME280;6669;42.678;23.332;2022-08-03T04:59:49;94578.22;;;18.69;100.00
13209;BME280;6669;42.678;23.332;2022-08-03T05:02:28;94580.53;;;18.77;100.00
13209;BME280;6669;42.678;23.332;2022-08-03T05:04:57;94581.84;;;18.86;100.00
13209;BME280;6669;42.678;23.332;2022-08-03T05:07:26;94580.78;;;18.87;100.00
13209;BME280;6669;42.678;23.332;2022-08-03T05:10:03;94581.38;;;18.89;100.00
13209;BME280;6669;42.678;23.332;2022-08-03T05:12:42;94590.38;;;19.00;100.00
13209;BME280;6669;42.678;23.332;2022-08-03T05:15:10;94594.47;;;18.96;100.00
13209;BME280;6669;42.678;23.332;2022-08-03T05:17:38;94597.59;;;19.05;100.00
13209;BME280;6669;42.678;23.332;2022-08-03T05:20:08;94602.28;;;19.03;100.00
13209;BME280;6669;42.678;23.332;2022-08-03T05:22:37;94602.41;;;19.08;100.00
13209;BME280;6669;42.678;23.332;2022-08-03T05:25:06;94610.22;;;19.15;100.00
13209;BME280;6669;42.678;23.332;2022-08-03T05:27:34;94614.13;;;19.24;100.00
13209;BME280;6669;42.678;23.332;2022-08-03T05:30:03;94609.88;;;19.23;100.00
13209;BME280;6669;42.678;23.332;2022-08-03T05:32:51;94612.31;;;19.24;100.00
13209;BME280;6669;42.678;23.332;2022-08-03T05:35:20;94622.38;;;19.27;100.00
13209;BME280;6669;42.678;23.332;2022-08-03T05:38:12;94620.47;;;19.35;100.00
13209;BME280;6669;42.678;23.332;2022-08-03T05:40:49;94627.47;;;19.41;100.00
13209;BME280;6669;42.678;23.332;2022-08-03T05:43:23;94625.63;;;19.41;100.00
13209;BME280;6669;42.678;23.332;2022-08-03T05:45:51;94624.00;;;19.52;100.00
13209;BME280;6669;42.678;23.332;2022-08-03T05:48:38;94627.94;;;19.62;100.00
13209;BME280;6669;42.678;23.332;2022-08-03T05:51:07;94630.56;;;19.73;100.00
13209;BME280;6669;42.678;23.332;2022-08-03T05:53:39;94623.38;;;19.81;100.00
13209;BME280;6669;42.678;23.332;2022-08-03T05:56:08;94637.34;;;19.81;100.00
13209;BME280;6669;42.678;23.332;2022-08-03T05:58:41;94625.56;;;19.84;100.00
13209;BME280;6669;42.678;23.332;2022-08-03T06:01:10;94626.72;;;20.00;100.00
13209;BME280;6669;42.678;23.332;2022-08-03T06:03:38;94629.91;;;20.14;100.00
13209;BME280;6669;42.678;23.332;2022-08-03T06:06:06;94636.78;;;20.27;100.00
13209;BME280;6669;42.678;23.332;2022-08-03T06:08:34;94640.50;;;20.42;100.00
13209;BME280;6669;42.678;23.332;2022-08-03T06:11:04;94640.97;;;20.51;100.00
13209;BME280;6669;42.678;23.332;2022-08-03T06:13:32;94638.41;;;20.56;100.00
13209;BME280;6669;42.678;23.332;2022-08-03T06:16:00;94645.88;;;20.71;100.00
13209;BME280;6669;42.678;23.332;2022-08-03T06:18:28;94638.38;;;20.80;100.00
13209;BME280;6669;42.678;23.332;2022-08-03T06:20:56;94642.72;;;20.86;100.00
13209;BME280;6669;42.678;23.332;2022-08-03T06:23:40;94644.75;;;20.96;100.00
13209;BME280;6669;42.678;23.332;2022-08-03T06:26:23;94651.31;;;20.94;100.00
13209;BME280;6669;42.678;23.332;2022-08-03T06:28:51;94650.94;;;21.02;100.00
13209;BME280;6669;42.678;23.332;2022-08-03T06:31:21;94652.69;;;20.96;100.00
13209;BME280;6669;42.678;23.332;2022-08-03T06:33:58;94654.00;;;21.11;100.00
13209;BME280;6669;42.678;23.332;2022-08-03T06:36:46;94654.78;;;21.11;100.00
13209;BME280;6669;42.678;23.332;2022-08-03T06:39:18;94650.91;;;21.31;100.00
13209;BME280;6669;42.678;23.332;2022-08-03T06:41:51;94654.28;;;21.43;100.00
13209;BME280;6669;42.678;23.332;2022-08-03T06:44:19;94657.56;;;21.50;100.00
13209;BME280;6669;42.678;23.332;2022-08-03T06:46:47;94659.88;;;21.30;100.00
13209;BME280;6669;42.678;23.332;2022-08-03T06:49:15;94657.91;;;21.54;100.00
13209;BME280;6669;42.678;23.332;2022-08-03T06:51:43;94664.75;;;21.67;100.00
13209;BME280;6669;42.678;23.332;2022-08-03T06:54:31;94651.94;;;21.59;100.00
13209;BME280;6669;42.678;23.332;2022-08-03T06:57:00;94659.44;;;21.67;100.00
13209;BME280;6669;42.678;23.332;2022-08-03T06:59:29;94655.84;;;21.73;100.00
13209;BME280;6669;42.678;23.332;2022-08-03T07:02:17;94659.75;;;21.87;100.00
13209;BME280;6669;42.678;23.332;2022-08-03T07:04:46;94655.19;;;22.00;100.00
13209;BME280;6669;42.678;23.332;2022-08-03T07:07:14;94665.59;;;22.07;100.00
13209;BME280;6669;42.678;23.332;2022-08-03T07:09:43;94656.38;;;22.09;100.00
13209;BME280;6669;42.678;23.332;2022-08-03T07:12:25;94660.22;;;22.18;100.00
13209;BME280;6669;42.678;23.332;2022-08-03T07:14:54;94661.34;;;22.23;100.00
13209;BME280;6669;42.678;23.332;2022-08-03T07:17:27;94661.72;;;22.31;100.00
13209;BME280;6669;42.678;23.332;2022-08-03T07:19:55;94663.56;;;22.48;100.00
13209;BME280;6669;42.678;23.332;2022-08-03T07:22:24;94661.50;;;22.55;100.00
13209;BME280;6669;42.678;23.332;2022-08-03T07:24:52;94663.22;;;22.66;100.00
13209;BME280;6669;42.678;23.332;2022-08-03T07:27:20;94664.41;;;22.76;100.00
13209;BME280;6669;42.678;23.332;2022-08-03T07:29:49;94672.41;;;22.81;100.00
13209;BME280;6669;42.678;23.332;2022-08-03T07:32:18;94664.28;;;22.88;100.00
13209;BME280;6669;42.678;23.332;2022-08-03T07:34:46;94672.66;;;23.01;100.00
13209;BME280;6669;42.678;23.332;2022-08-03T07:37:14;94674.63;;;23.11;100.00
13209;BME280;6669;42.678;23.332;2022-08-03T07:39:42;94669.72;;;23.25;100.00
13209;BME280;6669;42.678;23.332;2022-08-03T07:42:10;94672.22;;;23.37;100.00
13209;BME280;6669;42.678;23.332;2022-08-03T07:44:38;94668.31;;;23.45;100.00
13209;BME280;6669;42.678;23.332;2022-08-03T07:47:07;94676.09;;;23.57;100.00
13209;BME280;6669;42.678;23.332;2022-08-03T07:49:48;94667.69;;;23.65;100.00
13209;BME280;6669;42.678;23.332;2022-08-03T07:52:16;94659.75;;;23.65;100.00
13209;BME280;6669;42.678;23.332;2022-08-03T07:55:02;94669.94;;;23.83;100.00
13209;BME280;6669;42.678;23.332;2022-08-03T07:57:30;94670.88;;;23.94;100.00
13209;BME280;6669;42.678;23.332;2022-08-03T07:59:58;94673.38;;;24.11;100.00
13209;BME280;6669;42.678;23.332;2022-08-03T08:02:29;94673.09;;;24.13;100.00
13209;BME280;6669;42.678;23.332;2022-08-03T08:04:57;94671.88;;;24.26;100.00
13209;BME280;6669;42.678;23.332;2022-08-03T08:07:31;94672.16;;;24.35;100.00
13209;BME280;6669;42.678;23.332;2022-08-03T08:09:59;94675.63;;;24.35;100.00
13209;BME280;6669;42.678;23.332;2022-08-03T08:12:27;94680.44;;;24.43;100.00
13209;BME280;6669;42.678;23.332;2022-08-03T08:14:56;94680.78;;;24.57;100.00
13209;BME280;6669;42.678;23.332;2022-08-03T08:17:24;94675.81;;;24.66;100.00
13209;BME280;6669;42.678;23.332;2022-08-03T08:19:54;94677.97;;;24.69;100.00
13209;BME280;6669;42.678;23.332;2022-08-03T08:22:23;94677.16;;;24.74;100.00
13209;BME280;6669;42.678;23.332;2022-08-03T08:24:57;94672.91;;;24.73;100.00
13209;BME280;6669;42.678;23.332;2022-08-03T08:27:27;94673.75;;;24.78;100.00
13209;BME280;6669;42.678;23.332;2022-08-03T08:30:17;94675.66;;;24.93;100.00
13209;BME280;6669;42.678;23.332;2022-08-03T08:32:46;94672.78;;;25.10;100.00
13209;BME280;6669;42.678;23.332;2022-08-03T08:35:16;94671.75;;;25.22;100.00
13209;BME280;6669;42.678;23.332;2022-08-03T08:37:45;94671.22;;;25.35;100.00
13209;BME280;6669;42.678;23.332;2022-08-03T08:40:19;94670.19;;;25.41;100.00
13209;BME280;6669;42.678;23.332;2022-08-03T08:42:48;94664.09;;;25.51;100.00
13209;BME280;6669;42.678;23.332;2022-08-03T08:45:25;94667.31;;;25.64;100.00
13209;BME280;6669;42.678;23.332;2022-08-03T08:47:54;94666.25;;;25.70;100.00
13209;BME280;6669;42.678;23.332;2022-08-03T08:50:30;94664.34;;;25.86;100.00
13209;BME280;6669;42.678;23.332;2022-08-03T08:53:01;94663.56;;;26.01;100.00
13209;BME280;6669;42.678;23.332;2022-08-03T08:55:30;94657.19;;;26.07;98.72
13209;BME280;6669;42.678;23.332;2022-08-03T08:58:20;94652.63;;;26.18;100.00
13209;BME280;6669;42.678;23.332;2022-08-03T09:00:49;94655.28;;;26.18;93.77
13209;BME280;6669;42.678;23.332;2022-08-03T09:03:17;94644.91;;;26.11;93.77
13209;BME280;6669;42.678;23.332;2022-08-03T09:05:58;94648.63;;;26.15;92.03
13209;BME280;6669;42.678;23.332;2022-08-03T09:08:27;94657.69;;;25.83;93.85
13209;BME280;6669;42.678;23.332;2022-08-03T09:10:55;94647.84;;;26.15;100.00
13209;BME280;6669;42.678;23.332;2022-08-03T09:13:23;94646.16;;;26.39;98.13
13209;BME280;6669;42.678;23.332;2022-08-03T09:16:10;94648.53;;;26.56;90.07
13209;BME280;6669;42.678;23.332;2022-08-03T09:18:39;94649.00;;;26.69;90.23
13209;BME280;6669;42.678;23.332;2022-08-03T09:21:21;94642.88;;;26.68;86.39
13209;BME280;6669;42.678;23.332;2022-08-03T09:23:59;94648.22;;;26.68;87.95
13209;BME280;6669;42.678;23.332;2022-08-03T09:26:30;94651.41;;;26.81;84.61
13209;BME280;6669;42.678;23.332;2022-08-03T09:29:00;94650.06;;;26.83;84.57
13209;BME280;6669;42.678;23.332;2022-08-03T09:31:37;94646.81;;;26.86;82.34
13209;BME280;6669;42.678;23.332;2022-08-03T09:34:11;94644.97;;;26.87;84.96
13209;BME280;6669;42.678;23.332;2022-08-03T09:36:43;94639.88;;;26.90;87.85
13209;BME280;6669;42.678;23.332;2022-08-03T09:39:13;94644.63;;;26.99;83.09
13209;BME280;6669;42.678;23.332;2022-08-03T09:41:44;94642.41;;;27.16;87.04
13209;BME280;6669;42.678;23.332;2022-08-03T09:44:13;94638.13;;;27.15;85.35
13209;BME280;6669;42.678;23.332;2022-08-03T09:46:53;94649.50;;;27.31;88.60
13209;BME280;6669;42.678;23.332;2022-08-03T09:49:23;94645.13;;;27.51;83.51
13209;BME280;6669;42.678;23.332;2022-08-03T09:51:52;94640.53;;;27.56;81.89
13209;BME280;6669;42.678;23.332;2022-08-03T09:54:41;94645.84;;;27.62;79.96
13209;BME280;6669;42.678;23.332;2022-08-03T09:57:19;94645.53;;;27.68;78.16
13209;BME280;6669;42.678;23.332;2022-08-03T09:59:49;94639.84;;;27.80;81.84
13209;BME280;6669;42.678;23.332;2022-08-03T10:02:30;94646.28;;;28.09;82.48
13209;BME280;6669;42.678;23.332;2022-08-03T10:04:58;94647.28;;;28.13;77.44
13209;BME280;6669;42.678;23.332;2022-08-03T10:07:27;94632.06;;;28.13;78.50
13209;BME280;6669;42.678;23.332;2022-08-03T10:09:56;94627.50;;;28.14;82.04
13209;BME280;6669;42.678;23.332;2022-08-03T10:12:45;94626.69;;;28.18;79.92
13209;BME280;6669;42.678;23.332;2022-08-03T10:15:14;94625.72;;;28.33;80.43
13209;BME280;6669;42.678;23.332;2022-08-03T10:18:03;94627.41;;;28.48;76.64
13209;BME280;6669;42.678;23.332;2022-08-03T10:20:36;94622.16;;;28.62;77.19
13209;BME280;6669;42.678;23.332;2022-08-03T10:23:07;94627.94;;;28.75;78.73
13209;BME280;6669;42.678;23.332;2022-08-03T10:25:37;94627.81;;;29.04;75.51
13209;BME280;6669;42.678;23.332;2022-08-03T10:28:07;94617.69;;;29.01;75.54
13209;BME280;6669;42.678;23.332;2022-08-03T10:30:40;94617.56;;;29.11;73.53
13209;BME280;6669;42.678;23.332;2022-08-03T10:33:16;94615.72;;;29.26;75.80
13209;BME280;6669;42.678;23.332;2022-08-03T10:36:06;94615.63;;;29.69;73.48
13209;BME280;6669;42.678;23.332;2022-08-03T10:38:42;94613.16;;;29.40;69.69
13209;BME280;6669;42.678;23.332;2022-08-03T10:41:12;94612.41;;;29.53;70.95
13209;BME280;6669;42.678;23.332;2022-08-03T10:43:45;94612.91;;;29.55;69.13
13209;BME280;6669;42.678;23.332;2022-08-03T10:46:16;94603.31;;;29.16;68.59
13209;BME280;6669;42.678;23.332;2022-08-03T10:48:46;94604.31;;;29.20;70.64
13209;BME280;6669;42.678;23.332;2022-08-03T10:51:16;94610.91;;;29.47;72.94
13209;BME280;6669;42.678;23.332;2022-08-03T10:53:45;94607.47;;;29.93;71.85
13209;BME280;6669;42.678;23.332;2022-08-03T10:56:40;94607.25;;;30.51;69.28
13209;BME280;6669;42.678;23.332;2022-08-03T10:59:59;94603.47;;;30.65;65.27
13209;BME280;6669;42.678;23.332;2022-08-03T11:03:07;94599.41;;;31.05;65.95
13209;BME280;6669;42.678;23.332;2022-08-03T11:05:40;94609.91;;;31.52;62.40
13209;BME280;6669;42.678;23.332;2022-08-03T11:08:29;94601.19;;;31.69;60.81
13209;BME280;6669;42.678;23.332;2022-08-03T11:11:01;94601.84;;;32.28;58.85
13209;BME280;6669;42.678;23.332;2022-08-03T11:13:30;94604.00;;;32.67;57.91
13209;BME280;6669;42.678;23.332;2022-08-03T11:16:02;94605.84;;;32.89;56.75
13209;BME280;6669;42.678;23.332;2022-08-03T11:18:55;94594.44;;;33.18;57.77
13209;BME280;6669;42.678;23.332;2022-08-03T11:24:58;94583.97;;;33.87;53.39
13209;BME280;6669;42.678;23.332;2022-08-03T11:27:36;94583.63;;;34.27;54.21
13209;BME280;6669;42.678;23.332;2022-08-03T11:30:06;94583.53;;;34.15;51.60
13209;BME280;6669;42.678;23.332;2022-08-03T11:32:51;94571.88;;;33.84;52.47
13209;BME280;6669;42.678;23.332;2022-08-03T11:35:22;94577.59;;;33.92;52.05
13209;BME280;6669;42.678;23.332;2022-08-03T11:38:10;94576.69;;;34.17;52.30
13209;BME280;6669;42.678;23.332;2022-08-03T11:40:41;94574.88;;;34.39;52.20
13209;BME280;6669;42.678;23.332;2022-08-03T11:46:14;94564.22;;;33.30;53.92
13209;BME280;6669;42.678;23.332;2022-08-03T11:49:03;94572.56;;;33.55;52.92
13209;BME280;6669;42.678;23.332;2022-08-03T11:51:36;94574.59;;;33.76;52.35
13209;BME280;6669;42.678;23.332;2022-08-03T11:54:06;94573.78;;;33.75;52.26
13209;BME280;6669;42.678;23.332;2022-08-03T11:56:43;94571.13;;;33.66;53.28
13209;BME280;6669;42.678;23.332;2022-08-03T11:59:14;94564.91;;;32.60;53.77
13209;BME280;6669;42.678;23.332;2022-08-03T12:01:48;94562.66;;;32.14;54.69
13209;BME280;6669;42.678;23.332;2022-08-03T12:04:16;94569.31;;;31.53;57.16
13209;BME280;6669;42.678;23.332;2022-08-03T12:06:57;94559.06;;;31.55;57.36
13209;BME280;6669;42.678;23.332;2022-08-03T12:09:25;94553.91;;;31.45;59.40
13209;BME280;6669;42.678;23.332;2022-08-03T12:11:53;94558.63;;;31.17;59.59
13209;BME280;6669;42.678;23.332;2022-08-03T12:14:27;94554.75;;;30.72;58.95
13209;BME280;6669;42.678;23.332;2022-08-03T12:17:16;94557.06;;;30.37;58.78
13209;BME280;6669;42.678;23.332;2022-08-03T12:19:45;94554.00;;;30.30;59.09
13209;BME280;6669;42.678;23.332;2022-08-03T12:22:13;94534.44;;;30.15;59.91
13209;BME280;6669;42.678;23.332;2022-08-03T12:24:44;94553.44;;;29.72;60.22
13209;BME280;6669;42.678;23.332;2022-08-03T12:27:22;94544.28;;;29.59;62.21
13209;BME280;6669;42.678;23.332;2022-08-03T12:29:53;94552.31;;;29.59;61.45
13209;BME280;6669;42.678;23.332;2022-08-03T12:32:25;94551.25;;;29.74;63.51
13209;BME280;6669;42.678;23.332;2022-08-03T12:34:54;94542.69;;;30.19;59.51
13209;BME280;6669;42.678;23.332;2022-08-03T12:37:26;94543.47;;;31.21;58.17
13209;BME280;6669;42.678;23.332;2022-08-03T12:39:56;94543.31;;;31.40;56.03
13209;BME280;6669;42.678;23.332;2022-08-03T12:42:32;94541.38;;;31.86;56.51
13209;BME280;6669;42.678;23.332;2022-08-03T12:45:24;94540.47;;;31.45;57.48
13209;BME280;6669;42.678;23.332;2022-08-03T12:47:54;94545.88;;;31.68;56.32
13209;BME280;6669;42.678;23.332;2022-08-03T12:50:24;94540.94;;;31.92;57.31
13209;BME280;6669;42.678;23.332;2022-08-03T12:52:53;94544.03;;;32.66;55.65
13209;BME280;6669;42.678;23.332;2022-08-03T12:55:22;94544.66;;;33.60;53.71
13209;BME280;6669;42.678;23.332;2022-08-03T12:57:50;94539.22;;;34.25;51.71
13209;BME280;6669;42.678;23.332;2022-08-03T13:07:07;94523.59;;;34.69;49.17
13209;BME280;6669;42.678;23.332;2022-08-03T13:09:41;94520.72;;;34.95;48.34
13209;BME280;6669;42.678;23.332;2022-08-03T13:12:11;94509.13;;;35.49;48.20
13209;BME280;6669;42.678;23.332;2022-08-03T13:14:40;94516.31;;;35.45;46.92
13209;BME280;6669;42.678;23.332;2022-08-03T13:17:09;94506.00;;;35.26;46.05
13209;BME280;6669;42.678;23.332;2022-08-03T13:19:38;94507.63;;;35.40;47.68
13209;BME280;6669;42.678;23.332;2022-08-03T13:22:12;94519.84;;;35.58;47.45
13209;BME280;6669;42.678;23.332;2022-08-03T13:24:41;94520.97;;;35.45;47.94
13209;BME280;6669;42.678;23.332;2022-08-03T13:27:10;94516.59;;;34.98;49.42
13209;BME280;6669;42.678;23.332;2022-08-03T13:29:58;94518.28;;;35.02;49.90
13209;BME280;6669;42.678;23.332;2022-08-03T13:32:27;94513.03;;;35.40;49.77
13209;BME280;6669;42.678;23.332;2022-08-03T13:34:55;94520.16;;;35.44;48.99
13209;BME280;6669;42.678;23.332;2022-08-03T13:37:24;94517.50;;;35.69;49.38